sensor_id;sensor_type;location;lat;lon;timestamp;temperature;humidity
4739;DHT22;2383;48.632;10.156;2023-07-16T00:00:10;16.30;99.90
4739;DHT22;2383;48.632;10.156;2023-07-16T00:04:12;17.10;99.90
4739;DHT22;2383;48.632;10.156;2023-07-16T00:08:14;18.00;99.90
4739;DHT22;2383;48.632;10.156;2023-07-16T00:12:16;17.40;99.90
4739;DHT22;2383;48.632;10.156;2023-07-16T00:16:18;18.00;99.90
4739;DHT22;2383;48.632;10.156;2023-07-16T00:20:21;18.60;99.90
4739;DHT22;2383;48.632;10.156;2023-07-16T00:24:25;19.00;99.90
4739;DHT22;2383;48.632;10.156;2023-07-16T00:28:27;18.60;99.90
4739;DHT22;2383;48.632;10.156;2023-07-16T00:32:29;17.30;99.90
4739;DHT22;2383;48.632;10.156;2023-07-16T00:36:31;17.80;99.90
4739;DHT22;2383;48.632;10.156;2023-07-16T00:40:33;18.40;99.90
4739;DHT22;2383;48.632;10.156;2023-07-16T00:44:35;18.80;99.90
4739;DHT22;2383;48.632;10.156;2023-07-16T00:48:37;18.60;99.90
4739;DHT22;2383;48.632;10.156;2023-07-16T00:52:39;18.10;99.90
4739;DHT22;2383;48.632;10.156;2023-07-16T00:56:42;17.90;99.90
4739;DHT22;2383;48.632;10.156;2023-07-16T01:00:44;18.00;99.90
4739;DHT22;2383;48.632;10.156;2023-07-16T01:04:46;18.10;99.90
4739;DHT22;2383;48.632;10.156;2023-07-16T01:08:59;18.00;99.90
4739;DHT22;2383;48.632;10.156;2023-07-16T01:13:03;18.60;99.90
4739;DHT22;2383;48.632;10.156;2023-07-16T01:17:06;18.70;99.90
4739;DHT22;2383;48.632;10.156;2023-07-16T01:21:08;18.80;99.90
4739;DHT22;2383;48.632;10.156;2023-07-16T01:29:51;17.20;99.90
4739;DHT22;2383;48.632;10.156;2023-07-16T01:33:55;17.60;99.90
4739;DHT22;2383;48.632;10.156;2023-07-16T01:37:58;17.80;99.90
4739;DHT22;2383;48.632;10.156;2023-07-16T01:42:00;17.40;99.90
4739;DHT22;2383;48.632;10.156;2023-07-16T01:46:02;18.00;99.90
4739;DHT22;2383;48.632;10.156;2023-07-16T01:50:05;18.20;99.90
4739;DHT22;2383;48.632;10.156;2023-07-16T01:54:07;18.40;99.90
4739;DHT22;2383;48.632;10.156;2023-07-16T01:58:09;18.20;99.90
4739;DHT22;2383;48.632;10.156;2023-07-16T02:02:11;18.40;99.90
4739;DHT22;2383;48.632;10.156;2023-07-16T02:06:13;18.70;99.90
4739;DHT22;2383;48.632;10.156;2023-07-16T02:10:17;18.10;99.90
4739;DHT22;2383;48.632;10.156;2023-07-16T02:14:21;18.20;99.90
4739;DHT22;2383;48.632;10.156;2023-07-16T02:18:23;18.50;99.90
4739;DHT22;2383;48.632;10.156;2023-07-16T02:22:25;18.40;99.90
4739;DHT22;2383;48.632;10.156;2023-07-16T02:26:27;18.50;99.90
4739;DHT22;2383;48.632;10.156;2023-07-16T02:30:29;18.50;99.90
4739;DHT22;2383;48.632;10.156;2023-07-16T02:34:32;18.60;99.90
4739;DHT22;2383;48.632;10.156;2023-07-16T02:38:35;18.60;99.90
4739;DHT22;2383;48.632;10.156;2023-07-16T02:42:38;18.60;99.90
4739;DHT22;2383;48.632;10.156;2023-07-16T02:46:39;18.50;99.90
4739;DHT22;2383;48.632;10.156;2023-07-16T02:50:43;18.70;99.90
4739;DHT22;2383;48.632;10.156;2023-07-16T02:54:45;18.90;99.90
4739;DHT22;2383;48.632;10.156;2023-07-16T02:58:47;19.00;99.90
4739;DHT22;2383;48.632;10.156;2023-07-16T03:02:50;18.80;99.90
4739;DHT22;2383;48.632;10.156;2023-07-16T03:06:52;18.80;99.90
4739;DHT22;2383;48.632;10.156;2023-07-16T03:10:57;18.90;99.90
4739;DHT22;2383;48.632;10.156;2023-07-16T03:15:00;19.00;99.90
4739;DHT22;2383;48.632;10.156;2023-07-16T03:19:02;19.00;99.90
4739;DHT22;2383;48.632;10.156;2023-07-16T03:23:05;19.00;99.90
4739;DHT22;2383;48.632;10.156;2023-07-16T03:27:07;19.00;99.90
4739;DHT22;2383;48.632;10.156;2023-07-16T03:31:21;19.00;99.90
4739;DHT22;2383;48.632;10.156;2023-07-16T03:35:24;18.80;99.90
4739;DHT22;2383;48.632;10.156;2023-07-16T03:39:27;18.60;99.90
4739;DHT22;2383;48.632;10.156;2023-07-16T03:43:29;18.70;99.90
4739;DHT22;2383;48.632;10.156;2023-07-16T03:47:40;18.90;99.90
4739;DHT22;2383;48.632;10.156;2023-07-16T03:51:42;18.90;99.90
4739;DHT22;2383;48.632;10.156;2023-07-16T03:55:44;18.90;99.90
4739;DHT22;2383;48.632;10.156;2023-07-16T03:59:46;18.90;99.90
4739;DHT22;2383;48.632;10.156;2023-07-16T04:03:49;18.80;99.90
4739;DHT22;2383;48.632;10.156;2023-07-16T04:07:51;18.60;99.90
4739;DHT22;2383;48.632;10.156;2023-07-16T04:11:53;18.20;99.90
4739;DHT22;2383;48.632;10.156;2023-07-16T04:15:55;17.80;99.90
4739;DHT22;2383;48.632;10.156;2023-07-16T04:19:59;17.90;99.90
4739;DHT22;2383;48.632;10.156;2023-07-16T04:24:04;17.90;99.90
4739;DHT22;2383;48.632;10.156;2023-07-16T04:28:07;17.50;99.90
4739;DHT22;2383;48.632;10.156;2023-07-16T04:32:09;17.60;99.90
4739;DHT22;2383;48.632;10.156;2023-07-16T04:36:12;17.80;99.90
4739;DHT22;2383;48.632;10.156;2023-07-16T04:40:15;17.90;99.90
4739;DHT22;2383;48.632;10.156;2023-07-16T04:44:16;17.60;99.90
4739;DHT22;2383;48.632;10.156;2023-07-16T04:48:18;17.60;99.90
4739;DHT22;2383;48.632;10.156;2023-07-16T04:52:21;17.80;99.90
4739;DHT22;2383;48.632;10.156;2023-07-16T04:56:23;17.90;99.90
4739;DHT22;2383;48.632;10.156;2023-07-16T05:00:24;18.00;99.90
4739;DHT22;2383;48.632;10.156;2023-07-16T05:04:26;18.00;99.90
4739;DHT22;2383;48.632;10.156;2023-07-16T05:08:29;18.00;99.90
4739;DHT22;2383;48.632;10.156;2023-07-16T05:12:31;17.90;99.90
4739;DHT22;2383;48.632;10.156;2023-07-16T05:16:33;17.70;99.90
4739;DHT22;2383;48.632;10.156;2023-07-16T05:20:35;18.00;99.90
4739;DHT22;2383;48.632;10.156;2023-07-16T05:24:37;18.10;99.90
4739;DHT22;2383;48.632;10.156;2023-07-16T05:28:39;18.30;99.90
4739;DHT22;2383;48.632;10.156;2023-07-16T05:32:41;18.40;99.90
4739;DHT22;2383;48.632;10.156;2023-07-16T05:36:43;18.40;99.90
4739;DHT22;2383;48.632;10.156;2023-07-16T05:40:48;18.30;99.90
4739;DHT22;2383;48.632;10.156;2023-07-16T05:44:50;18.20;99.90
4739;DHT22;2383;48.632;10.156;2023-07-16T05:48:52;17.90;99.90
4739;DHT22;2383;48.632;10.156;2023-07-16T05:52:54;17.60;99.90
4739;DHT22;2383;48.632;10.156;2023-07-16T05:56:56;17.90;99.90
4739;DHT22;2383;48.632;10.156;2023-07-16T06:00:58;18.20;99.90
4739;DHT22;2383;48.632;10.156;2023-07-16T06:05:00;18.30;99.90
4739;DHT22;2383;48.632;10.156;2023-07-16T06:09:02;18.40;99.90
4739;DHT22;2383;48.632;10.156;2023-07-16T06:13:05;17.90;99.90
4739;DHT22;2383;48.632;10.156;2023-07-16T06:17:07;18.10;99.90
4739;DHT22;2383;48.632;10.156;2023-07-16T06:21:09;18.30;99.90
4739;DHT22;2383;48.632;10.156;2023-07-16T06:25:11;18.30;99.90
4739;DHT22;2383;48.632;10.156;2023-07-16T06:29:13;18.00;99.90
4739;DHT22;2383;48.632;10.156;2023-07-16T06:33:15;18.00;99.90
4739;DHT22;2383;48.632;10.156;2023-07-16T06:37:17;18.30;99.90
4739;DHT22;2383;48.632;10.156;2023-07-16T06:41:19;18.20;99.90
4739;DHT22;2383;48.632;10.156;2023-07-16T06:45:21;17.40;99.90
4739;DHT22;2383;48.632;10.156;2023-07-16T06:49:23;18.00;99.90
4739;DHT22;2383;48.632;10.156;2023-07-16T06:53:25;18.40;99.90
4739;DHT22;2383;48.632;10.156;2023-07-16T06:57:27;18.40;99.90
4739;DHT22;2383;48.632;10.156;2023-07-16T07:01:30;18.60;99.90
4739;DHT22;2383;48.632;10.156;2023-07-16T07:05:32;18.60;99.90
4739;DHT22;2383;48.632;10.156;2023-07-16T07:09:34;18.60;99.90
4739;DHT22;2383;48.632;10.156;2023-07-16T07:13:36;18.80;99.90
4739;DHT22;2383;48.632;10.156;2023-07-16T07:17:39;19.00;99.90
4739;DHT22;2383;48.632;10.156;2023-07-16T07:21:41;19.00;99.90
4739;DHT22;2383;48.632;10.156;2023-07-16T07:25:48;19.10;99.90
4739;DHT22;2383;48.632;10.156;2023-07-16T07:29:51;19.00;99.90
4739;DHT22;2383;48.632;10.156;2023-07-16T07:33:54;18.90;99.90
4739;DHT22;2383;48.632;10.156;2023-07-16T07:37:56;19.10;99.90
4739;DHT22;2383;48.632;10.156;2023-07-16T07:41:58;19.20;99.90
4739;DHT22;2383;48.632;10.156;2023-07-16T07:46:00;19.30;99.90
4739;DHT22;2383;48.632;10.156;2023-07-16T07:50:02;19.50;99.90
4739;DHT22;2383;48.632;10.156;2023-07-16T07:54:04;18.80;99.90
4739;DHT22;2383;48.632;10.156;2023-07-16T07:58:07;18.80;99.90
4739;DHT22;2383;48.632;10.156;2023-07-16T08:02:09;19.10;99.90
4739;DHT22;2383;48.632;10.156;2023-07-16T08:06:11;19.30;99.90
4739;DHT22;2383;48.632;10.156;2023-07-16T08:10:14;19.50;99.90
4739;DHT22;2383;48.632;10.156;2023-07-16T08:14:16;19.40;99.90
4739;DHT22;2383;48.632;10.156;2023-07-16T08:18:18;19.50;99.90
4739;DHT22;2383;48.632;10.156;2023-07-16T08:22:21;19.60;99.90
4739;DHT22;2383;48.632;10.156;2023-07-16T08:26:23;19.60;99.90
4739;DHT22;2383;48.632;10.156;2023-07-16T08:30:25;19.60;99.90
4739;DHT22;2383;48.632;10.156;2023-07-16T08:34:27;19.40;99.90
4739;DHT22;2383;48.632;10.156;2023-07-16T08:38:29;19.40;99.90
4739;DHT22;2383;48.632;10.156;2023-07-16T08:42:31;18.60;99.90
4739;DHT22;2383;48.632;10.156;2023-07-16T08:46:33;18.70;99.90
4739;DHT22;2383;48.632;10.156;2023-07-16T08:50:35;19.00;99.90
4739;DHT22;2383;48.632;10.156;2023-07-16T08:54:38;19.10;99.90
4739;DHT22;2383;48.632;10.156;2023-07-16T08:58:43;19.30;99.90
4739;DHT22;2383;48.632;10.156;2023-07-16T09:02:47;19.10;99.90
4739;DHT22;2383;48.632;10.156;2023-07-16T09:06:49;19.30;99.90
4739;DHT22;2383;48.632;10.156;2023-07-16T09:10:56;19.00;99.90
4739;DHT22;2383;48.632;10.156;2023-07-16T09:14:58;19.30;99.90
4739;DHT22;2383;48.632;10.156;2023-07-16T09:19:09;19.40;99.90
4739;DHT22;2383;48.632;10.156;2023-07-16T09:23:12;18.90;99.90
4739;DHT22;2383;48.632;10.156;2023-07-16T09:27:14;19.00;99.90
4739;DHT22;2383;48.632;10.156;2023-07-16T09:31:16;19.40;99.90
4739;DHT22;2383;48.632;10.156;2023-07-16T09:35:18;19.60;99.90
4739;DHT22;2383;48.632;10.156;2023-07-16T09:39:20;20.00;99.90
4739;DHT22;2383;48.632;10.156;2023-07-16T09:43:24;19.40;99.90
4739;DHT22;2383;48.632;10.156;2023-07-16T09:47:25;18.70;99.90
4739;DHT22;2383;48.632;10.156;2023-07-16T09:51:30;19.50;99.90
4739;DHT22;2383;48.632;10.156;2023-07-16T09:55:35;19.90;99.90
4739;DHT22;2383;48.632;10.156;2023-07-16T09:59:37;20.00;99.90
4739;DHT22;2383;48.632;10.156;2023-07-16T10:03:49;19.30;99.90
4739;DHT22;2383;48.632;10.156;2023-07-16T10:07:56;19.20;99.90
4739;DHT22;2383;48.632;10.156;2023-07-16T10:12:14;19.60;99.90
4739;DHT22;2383;48.632;10.156;2023-07-16T10:16:20;19.70;99.90
4739;DHT22;2383;48.632;10.156;2023-07-16T10:20:31;18.90;99.90
4739;DHT22;2383;48.632;10.156;2023-07-16T10:24:39;19.80;99.90
4739;DHT22;2383;48.632;10.156;2023-07-16T10:28:40;20.40;99.90
4739;DHT22;2383;48.632;10.156;2023-07-16T10:32:43;19.70;99.90
4739;DHT22;2383;48.632;10.156;2023-07-16T10:36:45;20.40;99.90
4739;DHT22;2383;48.632;10.156;2023-07-16T10:40:47;20.90;99.80
4739;DHT22;2383;48.632;10.156;2023-07-16T10:44:54;21.20;99.00
4739;DHT22;2383;48.632;10.156;2023-07-16T10:48:56;20.90;99.90
4739;DHT22;2383;48.632;10.156;2023-07-16T10:52:58;20.90;99.40
4739;DHT22;2383;48.632;10.156;2023-07-16T10:56:59;20.20;99.90
4739;DHT22;2383;48.632;10.156;2023-07-16T11:01:01;20.80;99.10
4739;DHT22;2383;48.632;10.156;2023-07-16T11:05:04;21.00;97.90
4739;DHT22;2383;48.632;10.156;2023-07-16T11:09:09;21.00;97.40
4739;DHT22;2383;48.632;10.156;2023-07-16T11:13:12;21.30;98.00
4739;DHT22;2383;48.632;10.156;2023-07-16T11:17:14;21.30;97.70
4739;DHT22;2383;48.632;10.156;2023-07-16T11:21:19;21.30;97.70
4739;DHT22;2383;48.632;10.156;2023-07-16T11:25:23;21.40;98.00
4739;DHT22;2383;48.632;10.156;2023-07-16T11:29:25;21.50;97.20
4739;DHT22;2383;48.632;10.156;2023-07-16T11:33:35;21.40;97.60
4739;DHT22;2383;48.632;10.156;2023-07-16T11:37:37;21.50;97.80
4739;DHT22;2383;48.632;10.156;2023-07-16T11:41:53;21.60;97.60
4739;DHT22;2383;48.632;10.156;2023-07-16T11:45:59;21.70;97.70
4739;DHT22;2383;48.632;10.156;2023-07-16T11:50:00;21.50;95.50
4739;DHT22;2383;48.632;10.156;2023-07-16T11:54:02;21.80;96.50
4739;DHT22;2383;48.632;10.156;2023-07-16T11:58:04;21.90;97.00
4739;DHT22;2383;48.632;10.156;2023-07-16T12:02:07;22.10;95.50
4739;DHT22;2383;48.632;10.156;2023-07-16T12:06:09;22.10;97.10
4739;DHT22;2383;48.632;10.156;2023-07-16T12:10:11;21.80;96.50
4739;DHT22;2383;48.632;10.156;2023-07-16T12:14:13;21.50;97.60
4739;DHT22;2383;48.632;10.156;2023-07-16T12:18:15;20.50;97.40
4739;DHT22;2383;48.632;10.156;2023-07-16T12:22:18;21.20;99.00
4739;DHT22;2383;48.632;10.156;2023-07-16T12:26:20;21.80;97.80
4739;DHT22;2383;48.632;10.156;2023-07-16T12:30:22;22.30;96.20
4739;DHT22;2383;48.632;10.156;2023-07-16T12:34:24;22.90;95.00
4739;DHT22;2383;48.632;10.156;2023-07-16T12:38:26;23.10;94.70
4739;DHT22;2383;48.632;10.156;2023-07-16T12:42:28;22.90;94.20
4739;DHT22;2383;48.632;10.156;2023-07-16T12:46:30;22.90;94.80
4739;DHT22;2383;48.632;10.156;2023-07-16T12:50:32;22.80;95.10
4739;DHT22;2383;48.632;10.156;2023-07-16T12:54:34;22.90;94.90
4739;DHT22;2383;48.632;10.156;2023-07-16T12:58:36;23.00;94.40
4739;DHT22;2383;48.632;10.156;2023-07-16T13:02:38;23.00;95.90
4739;DHT22;2383;48.632;10.156;2023-07-16T13:06:41;23.10;95.30
4739;DHT22;2383;48.632;10.156;2023-07-16T13:10:43;23.30;95.10
4739;DHT22;2383;48.632;10.156;2023-07-16T13:14:46;23.30;94.00
4739;DHT22;2383;48.632;10.156;2023-07-16T13:18:47;23.40;94.20
4739;DHT22;2383;48.632;10.156;2023-07-16T13:22:51;23.30;94.10
4739;DHT22;2383;48.632;10.156;2023-07-16T13:26:53;22.90;93.90
4739;DHT22;2383;48.632;10.156;2023-07-16T13:30:55;22.60;93.50
4739;DHT22;2383;48.632;10.156;2023-07-16T13:34:57;23.20;94.70
4739;DHT22;2383;48.632;10.156;2023-07-16T13:38:59;23.00;93.10
4739;DHT22;2383;48.632;10.156;2023-07-16T13:43:05;23.10;93.70
4739;DHT22;2383;48.632;10.156;2023-07-16T13:47:07;23.50;94.60
4739;DHT22;2383;48.632;10.156;2023-07-16T13:51:09;23.30;94.50
4739;DHT22;2383;48.632;10.156;2023-07-16T13:55:12;23.40;94.10
4739;DHT22;2383;48.632;10.156;2023-07-16T13:59:14;23.70;93.90
4739;DHT22;2383;48.632;10.156;2023-07-16T14:03:16;23.80;94.30
4739;DHT22;2383;48.632;10.156;2023-07-16T14:07:17;23.70;93.60
4739;DHT22;2383;48.632;10.156;2023-07-16T14:11:21;23.70;93.10
4739;DHT22;2383;48.632;10.156;2023-07-16T14:15:23;23.70;93.00
4739;DHT22;2383;48.632;10.156;2023-07-16T14:19:25;23.90;92.10
4739;DHT22;2383;48.632;10.156;2023-07-16T14:23:30;23.70;92.50
4739;DHT22;2383;48.632;10.156;2023-07-16T14:27:32;23.70;92.90
4739;DHT22;2383;48.632;10.156;2023-07-16T14:31:34;23.50;93.70
4739;DHT22;2383;48.632;10.156;2023-07-16T14:35:36;23.50;93.00
4739;DHT22;2383;48.632;10.156;2023-07-16T14:39:39;23.60;92.70
4739;DHT22;2383;48.632;10.156;2023-07-16T14:43:42;23.50;92.80
4739;DHT22;2383;48.632;10.156;2023-07-16T14:47:44;23.50;93.60
4739;DHT22;2383;48.632;10.156;2023-07-16T14:51:46;23.50;92.80
4739;DHT22;2383;48.632;10.156;2023-07-16T14:55:51;23.40;93.30
4739;DHT22;2383;48.632;10.156;2023-07-16T14:59:53;23.70;92.80
4739;DHT22;2383;48.632;10.156;2023-07-16T15:03:55;23.70;92.50
4739;DHT22;2383;48.632;10.156;2023-07-16T15:07:58;23.70;92.60
4739;DHT22;2383;48.632;10.156;2023-07-16T15:12:00;23.80;92.20
4739;DHT22;2383;48.632;10.156;2023-07-16T15:16:02;23.80;92.00
4739;DHT22;2383;48.632;10.156;2023-07-16T15:20:06;23.40;93.20
4739;DHT22;2383;48.632;10.156;2023-07-16T15:24:08;23.80;93.10
4739;DHT22;2383;48.632;10.156;2023-07-16T15:28:11;23.80;94.40
4739;DHT22;2383;48.632;10.156;2023-07-16T15:32:15;23.90;92.70
4739;DHT22;2383;48.632;10.156;2023-07-16T15:36:17;24.10;92.20
4739;DHT22;2383;48.632;10.156;2023-07-16T15:40:20;24.20;92.90
4739;DHT22;2383;48.632;10.156;2023-07-16T15:44:22;24.00;93.50
4739;DHT22;2383;48.632;10.156;2023-07-16T15:48:24;23.90;94.30
4739;DHT22;2383;48.632;10.156;2023-07-16T15:52:26;23.90;93.50
4739;DHT22;2383;48.632;10.156;2023-07-16T15:56:35;24.00;93.90
4739;DHT22;2383;48.632;10.156;2023-07-16T16:00:37;24.00;93.20
4739;DHT22;2383;48.632;10.156;2023-07-16T16:04:38;23.90;94.10
4739;DHT22;2383;48.632;10.156;2023-07-16T16:08:41;23.90;93.50
4739;DHT22;2383;48.632;10.156;2023-07-16T16:12:43;24.00;93.90
4739;DHT22;2383;48.632;10.156;2023-07-16T16:16:45;24.30;92.60
4739;DHT22;2383;48.632;10.156;2023-07-16T16:21:07;23.90;93.30
4739;DHT22;2383;48.632;10.156;2023-07-16T16:25:09;24.40;92.30
4739;DHT22;2383;48.632;10.156;2023-07-16T16:29:11;24.60;92.60
4739;DHT22;2383;48.632;10.156;2023-07-16T16:33:13;24.90;92.30
4739;DHT22;2383;48.632;10.156;2023-07-16T16:37:15;24.80;92.40
4739;DHT22;2383;48.632;10.156;2023-07-16T16:41:17;24.80;93.00
4739;DHT22;2383;48.632;10.156;2023-07-16T16:45:20;24.30;93.10
4739;DHT22;2383;48.632;10.156;2023-07-16T16:49:22;24.70;92.50
4739;DHT22;2383;48.632;10.156;2023-07-16T16:53:24;24.60;92.60
4739;DHT22;2383;48.632;10.156;2023-07-16T16:57:26;24.50;93.20
4739;DHT22;2383;48.632;10.156;2023-07-16T17:01:28;24.00;93.40
4739;DHT22;2383;48.632;10.156;2023-07-16T17:05:31;24.20;93.30
4739;DHT22;2383;48.632;10.156;2023-07-16T17:09:33;24.10;93.10
4739;DHT22;2383;48.632;10.156;2023-07-16T17:13:36;24.00;93.70
4739;DHT22;2383;48.632;10.156;2023-07-16T17:17:38;23.80;94.10
4739;DHT22;2383;48.632;10.156;2023-07-16T17:21:42;23.60;94.00
4739;DHT22;2383;48.632;10.156;2023-07-16T17:25:44;23.50;93.90
4739;DHT22;2383;48.632;10.156;2023-07-16T17:29:46;23.50;94.00
4739;DHT22;2383;48.632;10.156;2023-07-16T17:33:50;23.60;94.40
4739;DHT22;2383;48.632;10.156;2023-07-16T17:37:52;23.70;93.90
4739;DHT22;2383;48.632;10.156;2023-07-16T17:41:56;23.50;93.90
4739;DHT22;2383;48.632;10.156;2023-07-16T17:45:58;23.40;94.20
4739;DHT22;2383;48.632;10.156;2023-07-16T17:50:02;23.40;94.20
4739;DHT22;2383;48.632;10.156;2023-07-16T17:54:04;23.50;94.30
4739;DHT22;2383;48.632;10.156;2023-07-16T17:58:07;23.30;94.50
4739;DHT22;2383;48.632;10.156;2023-07-16T18:02:10;22.80;94.50
4739;DHT22;2383;48.632;10.156;2023-07-16T18:06:14;22.70;94.90
4739;DHT22;2383;48.632;10.156;2023-07-16T18:10:19;22.60;95.00
4739;DHT22;2383;48.632;10.156;2023-07-16T18:14:22;22.70;94.80
4739;DHT22;2383;48.632;10.156;2023-07-16T18:18:24;22.80;94.80
4739;DHT22;2383;48.632;10.156;2023-07-16T18:22:27;22.90;94.80
4739;DHT22;2383;48.632;10.156;2023-07-16T18:26:31;22.80;94.70
4739;DHT22;2383;48.632;10.156;2023-07-16T18:30:33;22.90;94.80
4739;DHT22;2383;48.632;10.156;2023-07-16T18:34:35;22.50;95.10
4739;DHT22;2383;48.632;10.156;2023-07-16T18:38:37;22.60;95.40
4739;DHT22;2383;48.632;10.156;2023-07-16T18:42:40;22.60;95.80
4739;DHT22;2383;48.632;10.156;2023-07-16T18:46:42;22.60;95.80
4739;DHT22;2383;48.632;10.156;2023-07-16T18:50:44;22.70;96.10
4739;DHT22;2383;48.632;10.156;2023-07-16T18:54:48;22.70;96.30
4739;DHT22;2383;48.632;10.156;2023-07-16T18:58:50;22.70;96.40
4739;DHT22;2383;48.632;10.156;2023-07-16T19:02:52;22.70;97.00
4739;DHT22;2383;48.632;10.156;2023-07-16T19:06:55;22.60;97.30
4739;DHT22;2383;48.632;10.156;2023-07-16T19:10:57;22.50;97.30
4739;DHT22;2383;48.632;10.156;2023-07-16T19:14:59;22.40;97.10
4739;DHT22;2383;48.632;10.156;2023-07-16T19:19:05;22.40;97.00
4739;DHT22;2383;48.632;10.156;2023-07-16T19:23:07;22.30;97.20
4739;DHT22;2383;48.632;10.156;2023-07-16T19:27:09;22.20;97.60
4739;DHT22;2383;48.632;10.156;2023-07-16T19:31:11;22.10;98.40
4739;DHT22;2383;48.632;10.156;2023-07-16T19:35:14;21.90;98.70
4739;DHT22;2383;48.632;10.156;2023-07-16T19:39:16;21.60;98.90
4739;DHT22;2383;48.632;10.156;2023-07-16T19:43:18;21.50;99.50
4739;DHT22;2383;48.632;10.156;2023-07-16T19:47:20;21.50;99.80
4739;DHT22;2383;48.632;10.156;2023-07-16T19:51:22;21.30;99.90
4739;DHT22;2383;48.632;10.156;2023-07-16T19:55:24;21.20;99.90
4739;DHT22;2383;48.632;10.156;2023-07-16T19:59:26;21.10;99.90
4739;DHT22;2383;48.632;10.156;2023-07-16T20:03:28;21.00;99.90
4739;DHT22;2383;48.632;10.156;2023-07-16T20:07:30;20.70;99.90
4739;DHT22;2383;48.632;10.156;2023-07-16T20:11:36;20.50;99.90
4739;DHT22;2383;48.632;10.156;2023-07-16T20:15:39;20.40;99.90
4739;DHT22;2383;48.632;10.156;2023-07-16T20:19:41;20.30;99.90
4739;DHT22;2383;48.632;10.156;2023-07-16T20:23:43;20.30;99.90
4739;DHT22;2383;48.632;10.156;2023-07-16T20:27:52;20.20;99.90
4739;DHT22;2383;48.632;10.156;2023-07-16T20:31:54;20.20;99.90
4739;DHT22;2383;48.632;10.156;2023-07-16T20:35:56;20.30;99.90
4739;DHT22;2383;48.632;10.156;2023-07-16T20:39:59;20.30;99.90
4739;DHT22;2383;48.632;10.156;2023-07-16T20:44:01;20.30;99.90
4739;DHT22;2383;48.632;10.156;2023-07-16T20:48:03;20.10;99.90
4739;DHT22;2383;48.632;10.156;2023-07-16T20:52:06;20.00;99.90
4739;DHT22;2383;48.632;10.156;2023-07-16T20:56:08;19.80;99.90
4739;DHT22;2383;48.632;10.156;2023-07-16T21:00:13;19.60;99.90
4739;DHT22;2383;48.632;10.156;2023-07-16T21:04:26;19.30;99.90
4739;DHT22;2383;48.632;10.156;2023-07-16T21:08:28;19.30;99.90
4739;DHT22;2383;48.632;10.156;2023-07-16T21:12:31;19.50;99.90
4739;DHT22;2383;48.632;10.156;2023-07-16T21:16:33;19.60;99.90
4739;DHT22;2383;48.632;10.156;2023-07-16T21:20:36;19.60;99.90
4739;DHT22;2383;48.632;10.156;2023-07-16T21:24:41;19.30;99.90
4739;DHT22;2383;48.632;10.156;2023-07-16T21:28:43;19.20;99.90
4739;DHT22;2383;48.632;10.156;2023-07-16T21:32:45;19.10;99.90
4739;DHT22;2383;48.632;10.156;2023-07-16T21:36:48;19.20;99.90
4739;DHT22;2383;48.632;10.156;2023-07-16T21:40:51;19.30;99.90
4739;DHT22;2383;48.632;10.156;2023-07-16T21:44:53;19.40;99.90
4739;DHT22;2383;48.632;10.156;2023-07-16T21:48:55;19.40;99.90
4739;DHT22;2383;48.632;10.156;2023-07-16T21:52:59;19.30;99.90
4739;DHT22;2383;48.632;10.156;2023-07-16T21:57:02;19.20;99.90
4739;DHT22;2383;48.632;10.156;2023-07-16T22:01:05;19.20;99.90
4739;DHT22;2383;48.632;10.156;2023-07-16T22:05:09;19.20;99.90
4739;DHT22;2383;48.632;10.156;2023-07-16T22:09:12;19.10;99.90
4739;DHT22;2383;48.632;10.156;2023-07-16T22:13:14;17.90;99.90
4739;DHT22;2383;48.632;10.156;2023-07-16T22:17:16;18.50;99.90
4739;DHT22;2383;48.632;10.156;2023-07-16T22:21:18;18.50;99.90
4739;DHT22;2383;48.632;10.156;2023-07-16T22:25:22;18.60;99.90
4739;DHT22;2383;48.632;10.156;2023-07-16T22:29:24;18.30;99.90
4739;DHT22;2383;48.632;10.156;2023-07-16T22:33:26;18.60;99.90
4739;DHT22;2383;48.632;10.156;2023-07-16T22:37:28;18.70;99.90
4739;DHT22;2383;48.632;10.156;2023-07-16T22:41:30;18.60;99.90
4739;DHT22;2383;48.632;10.156;2023-07-16T22:45:32;18.80;99.90
4739;DHT22;2383;48.632;10.156;2023-07-16T22:49:37;18.90;99.90
4739;DHT22;2383;48.632;10.156;2023-07-16T22:53:39;19.00;99.90
4739;DHT22;2383;48.632;10.156;2023-07-16T22:57:42;18.90;99.90
4739;DHT22;2383;48.632;10.156;2023-07-16T23:01:44;19.00;99.90
4739;DHT22;2383;48.632;10.156;2023-07-16T23:05:46;19.00;99.90
4739;DHT22;2383;48.632;10.156;2023-07-16T23:09:48;18.80;99.90
4739;DHT22;2383;48.632;10.156;2023-07-16T23:13:51;18.80;99.90
4739;DHT22;2383;48.632;10.156;2023-07-16T23:17:53;18.80;99.90
4739;DHT22;2383;48.632;10.156;2023-07-16T23:21:54;18.60;99.90
4739;DHT22;2383;48.632;10.156;2023-07-16T23:25:56;18.60;99.90
4739;DHT22;2383;48.632;10.156;2023-07-16T23:29:59;18.60;99.90
4739;DHT22;2383;48.632;10.156;2023-07-16T23:34:01;18.60;99.90
4739;DHT22;2383;48.632;10.156;2023-07-16T23:38:03;18.60;99.90
4739;DHT22;2383;48.632;10.156;2023-07-16T23:42:05;18.50;99.90
4739;DHT22;2383;48.632;10.156;2023-07-16T23:46:07;18.40;99.90
4739;DHT22;2383;48.632;10.156;2023-07-16T23:50:10;18.20;99.90
4739;DHT22;2383;48.632;10.156;2023-07-16T23:54:12;18.30;99.90
4739;DHT22;2383;48.632;10.156;2023-07-16T23:58:23;18.20;99.90
